Terminal Aerodrome Forecast
Issued by NWS Cleveland, OH

Home | Current Version | Previous Version | Graphics & Text | Print | Product List | Glossary Off
Versions: 1 2 3 4 5 6 7 8 9 10 11 12 13 14 15 16 17 18 19 20 21 22 23 24 25 26 27 28 29 30 31 32 33

000
FTUS41 KCLE 221500 AAA
TAFMFD
TAF AMD
KMFD 221523Z 2215/2312 34010KT 6SM BR OVC005
     FM221700 34010KT P6SM OVC010
     FM221800 36010KT P6SM OVC018
     FM222000 36010KT P6SM BKN025
     FM222200 36008KT P6SM BKN035
     FM230000 34004KT P6SM SKC
     FM230900 VRB04KT 3SM BR SKC=

USA.gov is the U.S. government's official web portal to all federal, state and local government web resources and services.